Terminal Aerodrome Forecast
Issued by NWS Duluth, MN

Home | Current Version | Previous Version | Text Only | Print | Product List | Glossary On
Versions: 1 2 3 4 5 6 7 8 9 10 11 12 13 14 15 16 17 18 19 20 21 22 23 24 25 26 27 28
000
FTUS43 KDLH 242340
TAFDLH
TAF
KDLH 242340Z 2500/2524 10018G25KT P6SM BKN100
     FM250300 10005KT P6SM VCSH OVC080
     FM251200 04005KT P6SM OVC060
     FM252100 06007KT P6SM VCSH OVC035
     FM252300 02009G17KT 2SM -SHRA OVC015=

USA.gov is the U.S. government's official web portal to all federal, state and local government web resources and services.